sensor_id;sensor_type;location;lat;lon;timestamp;P1;durP1;ratioP1;P2;durP2;ratioP2
16804;SDS011;8520;50.102;20.010;2024-03-08T00:00:12;29.27;;;27.03;;
16804;SDS011;8520;50.102;20.010;2024-03-08T00:02:43;29.00;;;26.70;;
16804;SDS011;8520;50.102;20.010;2024-03-08T00:05:12;27.80;;;25.70;;
16804;SDS011;8520;50.102;20.010;2024-03-08T00:07:40;27.77;;;25.70;;
16804;SDS011;8520;50.102;20.010;2024-03-08T00:10:10;27.67;;;25.57;;
16804;SDS011;8520;50.102;20.010;2024-03-08T00:12:42;28.73;;;26.50;;
16804;SDS011;8520;50.102;20.010;2024-03-08T00:15:11;26.20;;;24.30;;
16804;SDS011;8520;50.102;20.010;2024-03-08T00:17:41;25.67;;;23.67;;
16804;SDS011;8520;50.102;20.010;2024-03-08T00:20:10;26.53;;;24.43;;
16804;SDS011;8520;50.102;20.010;2024-03-08T00:22:38;25.23;;;23.03;;
16804;SDS011;8520;50.102;20.010;2024-03-08T00:25:06;25.50;;;23.57;;
16804;SDS011;8520;50.102;20.010;2024-03-08T00:27:35;26.87;;;24.77;;
16804;SDS011;8520;50.102;20.010;2024-03-08T00:30:05;24.97;;;23.07;;
16804;SDS011;8520;50.102;20.010;2024-03-08T00:32:34;24.97;;;22.93;;
16804;SDS011;8520;50.102;20.010;2024-03-08T00:35:03;26.57;;;24.47;;
16804;SDS011;8520;50.102;20.010;2024-03-08T00:37:31;26.27;;;24.17;;
16804;SDS011;8520;50.102;20.010;2024-03-08T00:40:00;26.50;;;24.50;;
16804;SDS011;8520;50.102;20.010;2024-03-08T00:42:28;25.33;;;23.43;;
16804;SDS011;8520;50.102;20.010;2024-03-08T00:44:56;25.67;;;23.57;;
16804;SDS011;8520;50.102;20.010;2024-03-08T00:47:26;26.60;;;24.50;;
16804;SDS011;8520;50.102;20.010;2024-03-08T00:49:54;25.13;;;23.23;;
16804;SDS011;8520;50.102;20.010;2024-03-08T00:52:23;26.03;;;23.97;;
16804;SDS011;8520;50.102;20.010;2024-03-08T00:54:51;26.27;;;24.10;;
16804;SDS011;8520;50.102;20.010;2024-03-08T00:57:19;27.07;;;24.87;;
16804;SDS011;8520;50.102;20.010;2024-03-08T00:59:47;26.93;;;24.77;;
16804;SDS011;8520;50.102;20.010;2024-03-08T01:02:16;25.90;;;23.80;;
16804;SDS011;8520;50.102;20.010;2024-03-08T01:04:47;27.57;;;25.17;;
16804;SDS011;8520;50.102;20.010;2024-03-08T01:07:15;27.47;;;25.30;;
16804;SDS011;8520;50.102;20.010;2024-03-08T01:09:43;29.03;;;26.67;;
16804;SDS011;8520;50.102;20.010;2024-03-08T01:12:10;28.80;;;26.40;;
16804;SDS011;8520;50.102;20.010;2024-03-08T01:14:38;28.77;;;26.37;;
16804;SDS011;8520;50.102;20.010;2024-03-08T01:17:06;27.93;;;25.70;;
16804;SDS011;8520;50.102;20.010;2024-03-08T01:19:36;29.70;;;27.30;;
16804;SDS011;8520;50.102;20.010;2024-03-08T01:22:05;28.77;;;26.47;;
16804;SDS011;8520;50.102;20.010;2024-03-08T01:24:34;29.30;;;26.77;;
16804;SDS011;8520;50.102;20.010;2024-03-08T01:27:02;29.87;;;27.37;;
16804;SDS011;8520;50.102;20.010;2024-03-08T01:29:30;29.07;;;26.60;;
16804;SDS011;8520;50.102;20.010;2024-03-08T01:31:59;27.70;;;25.57;;
16804;SDS011;8520;50.102;20.010;2024-03-08T01:34:28;27.93;;;25.73;;
16804;SDS011;8520;50.102;20.010;2024-03-08T01:36:56;28.50;;;26.10;;
16804;SDS011;8520;50.102;20.010;2024-03-08T01:39:25;28.93;;;26.53;;
16804;SDS011;8520;50.102;20.010;2024-03-08T01:41:54;25.67;;;23.60;;
16804;SDS011;8520;50.102;20.010;2024-03-08T01:44:22;25.33;;;23.37;;
16804;SDS011;8520;50.102;20.010;2024-03-08T01:46:50;26.70;;;24.60;;
16804;SDS011;8520;50.102;20.010;2024-03-08T01:49:21;25.03;;;22.83;;
16804;SDS011;8520;50.102;20.010;2024-03-08T01:51:50;23.60;;;21.90;;
16804;SDS011;8520;50.102;20.010;2024-03-08T01:54:18;26.63;;;24.43;;
16804;SDS011;8520;50.102;20.010;2024-03-08T01:56:48;25.70;;;23.73;;
16804;SDS011;8520;50.102;20.010;2024-03-08T01:59:16;26.90;;;24.80;;
16804;SDS011;8520;50.102;20.010;2024-03-08T02:01:44;25.37;;;23.47;;
16804;SDS011;8520;50.102;20.010;2024-03-08T02:04:12;25.13;;;23.17;;
16804;SDS011;8520;50.102;20.010;2024-03-08T02:06:40;24.37;;;22.47;;
16804;SDS011;8520;50.102;20.010;2024-03-08T02:09:07;23.73;;;21.93;;
16804;SDS011;8520;50.102;20.010;2024-03-08T02:11:37;23.10;;;21.33;;
16804;SDS011;8520;50.102;20.010;2024-03-08T02:14:06;24.30;;;22.50;;
16804;SDS011;8520;50.102;20.010;2024-03-08T02:16:34;25.50;;;23.50;;
16804;SDS011;8520;50.102;20.010;2024-03-08T02:19:02;24.90;;;23.00;;
16804;SDS011;8520;50.102;20.010;2024-03-08T02:21:31;24.70;;;22.53;;
16804;SDS011;8520;50.102;20.010;2024-03-08T02:24:00;25.13;;;23.03;;
16804;SDS011;8520;50.102;20.010;2024-03-08T02:26:28;26.00;;;23.90;;
16804;SDS011;8520;50.102;20.010;2024-03-08T02:28:56;24.33;;;22.50;;
16804;SDS011;8520;50.102;20.010;2024-03-08T02:31:24;25.23;;;23.23;;
16804;SDS011;8520;50.102;20.010;2024-03-08T02:33:52;26.63;;;24.53;;
16804;SDS011;8520;50.102;20.010;2024-03-08T02:36:21;26.70;;;24.50;;
16804;SDS011;8520;50.102;20.010;2024-03-08T02:38:50;27.17;;;24.93;;
16804;SDS011;8520;50.102;20.010;2024-03-08T02:41:18;26.17;;;24.17;;
16804;SDS011;8520;50.102;20.010;2024-03-08T02:43:46;26.93;;;24.80;;
16804;SDS011;8520;50.102;20.010;2024-03-08T02:46:14;28.50;;;26.10;;
16804;SDS011;8520;50.102;20.010;2024-03-08T02:48:42;27.53;;;25.33;;
16804;SDS011;8520;50.102;20.010;2024-03-08T02:51:10;26.77;;;24.67;;
16804;SDS011;8520;50.102;20.010;2024-03-08T02:53:38;29.00;;;26.53;;
16804;SDS011;8520;50.102;20.010;2024-03-08T02:56:08;27.97;;;25.57;;
16804;SDS011;8520;50.102;20.010;2024-03-08T02:58:39;27.30;;;25.10;;
16804;SDS011;8520;50.102;20.010;2024-03-08T03:01:07;26.97;;;24.77;;
16804;SDS011;8520;50.102;20.010;2024-03-08T03:03:37;27.13;;;25.03;;
16804;SDS011;8520;50.102;20.010;2024-03-08T03:06:04;25.40;;;23.43;;
16804;SDS011;8520;50.102;20.010;2024-03-08T03:08:33;25.47;;;23.37;;
16804;SDS011;8520;50.102;20.010;2024-03-08T03:11:01;25.27;;;23.10;;
16804;SDS011;8520;50.102;20.010;2024-03-08T03:13:31;25.27;;;23.27;;
16804;SDS011;8520;50.102;20.010;2024-03-08T03:16:00;25.20;;;23.30;;
16804;SDS011;8520;50.102;20.010;2024-03-08T03:18:28;25.80;;;23.77;;
16804;SDS011;8520;50.102;20.010;2024-03-08T03:20:56;25.90;;;23.80;;
16804;SDS011;8520;50.102;20.010;2024-03-08T03:23:24;24.90;;;23.00;;
16804;SDS011;8520;50.102;20.010;2024-03-08T03:25:53;25.23;;;23.17;;
16804;SDS011;8520;50.102;20.010;2024-03-08T03:28:24;24.83;;;22.93;;
16804;SDS011;8520;50.102;20.010;2024-03-08T03:30:53;25.60;;;23.53;;
16804;SDS011;8520;50.102;20.010;2024-03-08T03:33:25;25.00;;;23.10;;
16804;SDS011;8520;50.102;20.010;2024-03-08T03:35:53;26.40;;;24.27;;
16804;SDS011;8520;50.102;20.010;2024-03-08T03:38:21;26.60;;;24.50;;
16804;SDS011;8520;50.102;20.010;2024-03-08T03:40:50;26.70;;;24.40;;
16804;SDS011;8520;50.102;20.010;2024-03-08T03:43:19;27.40;;;25.07;;
16804;SDS011;8520;50.102;20.010;2024-03-08T03:45:47;29.97;;;27.53;;
16804;SDS011;8520;50.102;20.010;2024-03-08T03:48:16;27.60;;;25.40;;
16804;SDS011;8520;50.102;20.010;2024-03-08T03:50:44;29.00;;;26.60;;
16804;SDS011;8520;50.102;20.010;2024-03-08T03:53:12;29.07;;;26.53;;
16804;SDS011;8520;50.102;20.010;2024-03-08T03:55:40;27.67;;;25.23;;
16804;SDS011;8520;50.102;20.010;2024-03-08T03:58:08;27.93;;;25.50;;
16804;SDS011;8520;50.102;20.010;2024-03-08T04:00:37;27.90;;;25.60;;
16804;SDS011;8520;50.102;20.010;2024-03-08T04:03:06;27.20;;;25.00;;
16804;SDS011;8520;50.102;20.010;2024-03-08T04:05:37;27.40;;;25.07;;
16804;SDS011;8520;50.102;20.010;2024-03-08T04:08:06;27.33;;;25.20;;
16804;SDS011;8520;50.102;20.010;2024-03-08T04:10:34;27.73;;;25.53;;
16804;SDS011;8520;50.102;20.010;2024-03-08T04:13:02;26.67;;;24.37;;
16804;SDS011;8520;50.102;20.010;2024-03-08T04:15:30;27.13;;;24.93;;
16804;SDS011;8520;50.102;20.010;2024-03-08T04:17:58;28.00;;;25.80;;
16804;SDS011;8520;50.102;20.010;2024-03-08T04:20:27;28.50;;;26.10;;
16804;SDS011;8520;50.102;20.010;2024-03-08T04:22:56;27.37;;;25.10;;
16804;SDS011;8520;50.102;20.010;2024-03-08T04:25:24;29.03;;;26.47;;
16804;SDS011;8520;50.102;20.010;2024-03-08T04:27:53;29.83;;;27.23;;
16804;SDS011;8520;50.102;20.010;2024-03-08T04:30:21;29.43;;;26.93;;
16804;SDS011;8520;50.102;20.010;2024-03-08T04:32:49;29.20;;;26.77;;
16804;SDS011;8520;50.102;20.010;2024-03-08T04:35:17;28.87;;;26.57;;
16804;SDS011;8520;50.102;20.010;2024-03-08T04:37:47;30.30;;;27.60;;
16804;SDS011;8520;50.102;20.010;2024-03-08T04:40:16;29.67;;;27.27;;
16804;SDS011;8520;50.102;20.010;2024-03-08T04:42:45;30.03;;;27.53;;
16804;SDS011;8520;50.102;20.010;2024-03-08T04:45:14;29.50;;;27.00;;
16804;SDS011;8520;50.102;20.010;2024-03-08T04:47:42;29.70;;;27.20;;
16804;SDS011;8520;50.102;20.010;2024-03-08T04:50:10;30.23;;;27.70;;
16804;SDS011;8520;50.102;20.010;2024-03-08T04:52:38;30.83;;;27.80;;
16804;SDS011;8520;50.102;20.010;2024-03-08T04:55:06;31.17;;;28.57;;
16804;SDS011;8520;50.102;20.010;2024-03-08T04:57:35;29.97;;;27.33;;
16804;SDS011;8520;50.102;20.010;2024-03-08T05:00:03;30.20;;;27.80;;
16804;SDS011;8520;50.102;20.010;2024-03-08T05:02:37;31.83;;;28.90;;
16804;SDS011;8520;50.102;20.010;2024-03-08T05:05:06;30.53;;;28.03;;
16804;SDS011;8520;50.102;20.010;2024-03-08T05:07:34;30.90;;;28.40;;
16804;SDS011;8520;50.102;20.010;2024-03-08T05:10:02;30.63;;;28.10;;
16804;SDS011;8520;50.102;20.010;2024-03-08T05:12:30;29.33;;;26.83;;
16804;SDS011;8520;50.102;20.010;2024-03-08T05:15:00;31.37;;;28.77;;
16804;SDS011;8520;50.102;20.010;2024-03-08T05:17:28;31.03;;;28.17;;
16804;SDS011;8520;50.102;20.010;2024-03-08T05:19:57;31.27;;;28.57;;
16804;SDS011;8520;50.102;20.010;2024-03-08T05:22:25;30.87;;;28.37;;
16804;SDS011;8520;50.102;20.010;2024-03-08T05:24:54;32.00;;;29.23;;
16804;SDS011;8520;50.102;20.010;2024-03-08T05:27:22;31.50;;;28.73;;
16804;SDS011;8520;50.102;20.010;2024-03-08T05:29:50;30.27;;;27.97;;
16804;SDS011;8520;50.102;20.010;2024-03-08T05:32:19;32.17;;;29.57;;
16804;SDS011;8520;50.102;20.010;2024-03-08T05:34:47;31.93;;;29.30;;
16804;SDS011;8520;50.102;20.010;2024-03-08T05:37:15;32.37;;;29.63;;
16804;SDS011;8520;50.102;20.010;2024-03-08T05:39:43;31.60;;;29.20;;
16804;SDS011;8520;50.102;20.010;2024-03-08T05:42:11;31.53;;;28.90;;
16804;SDS011;8520;50.102;20.010;2024-03-08T05:44:39;32.90;;;29.80;;
16804;SDS011;8520;50.102;20.010;2024-03-08T05:47:07;32.67;;;29.80;;
16804;SDS011;8520;50.102;20.010;2024-03-08T05:49:36;32.33;;;29.47;;
16804;SDS011;8520;50.102;20.010;2024-03-08T05:52:05;32.40;;;29.70;;
16804;SDS011;8520;50.102;20.010;2024-03-08T05:54:33;31.67;;;29.17;;
16804;SDS011;8520;50.102;20.010;2024-03-08T05:57:01;31.70;;;29.17;;
16804;SDS011;8520;50.102;20.010;2024-03-08T05:59:29;33.53;;;30.73;;
16804;SDS011;8520;50.102;20.010;2024-03-08T06:01:57;32.97;;;30.27;;
16804;SDS011;8520;50.102;20.010;2024-03-08T06:04:25;32.77;;;29.97;;
16804;SDS011;8520;50.102;20.010;2024-03-08T06:06:55;31.97;;;29.17;;
16804;SDS011;8520;50.102;20.010;2024-03-08T06:09:24;32.67;;;30.07;;
16804;SDS011;8520;50.102;20.010;2024-03-08T06:11:52;33.63;;;30.73;;
16804;SDS011;8520;50.102;20.010;2024-03-08T06:14:21;31.57;;;28.90;;
16804;SDS011;8520;50.102;20.010;2024-03-08T06:16:50;30.93;;;28.00;;
16804;SDS011;8520;50.102;20.010;2024-03-08T06:19:18;31.53;;;28.93;;
16804;SDS011;8520;50.102;20.010;2024-03-08T06:21:46;30.77;;;28.17;;
16804;SDS011;8520;50.102;20.010;2024-03-08T06:24:15;32.07;;;29.37;;
16804;SDS011;8520;50.102;20.010;2024-03-08T06:26:44;30.77;;;28.27;;
16804;SDS011;8520;50.102;20.010;2024-03-08T06:29:12;29.83;;;27.33;;
16804;SDS011;8520;50.102;20.010;2024-03-08T06:31:42;32.33;;;29.53;;
16804;SDS011;8520;50.102;20.010;2024-03-08T06:34:10;33.20;;;30.40;;
16804;SDS011;8520;50.102;20.010;2024-03-08T06:36:38;31.30;;;28.60;;
16804;SDS011;8520;50.102;20.010;2024-03-08T06:39:06;31.73;;;29.33;;
16804;SDS011;8520;50.102;20.010;2024-03-08T06:41:38;31.37;;;28.87;;
16804;SDS011;8520;50.102;20.010;2024-03-08T06:44:06;32.00;;;29.33;;
16804;SDS011;8520;50.102;20.010;2024-03-08T06:46:35;30.30;;;27.83;;
16804;SDS011;8520;50.102;20.010;2024-03-08T06:49:05;30.10;;;27.80;;
16804;SDS011;8520;50.102;20.010;2024-03-08T06:51:33;31.23;;;28.67;;
16804;SDS011;8520;50.102;20.010;2024-03-08T06:54:01;31.17;;;28.47;;
16804;SDS011;8520;50.102;20.010;2024-03-08T06:56:35;32.03;;;29.43;;
16804;SDS011;8520;50.102;20.010;2024-03-08T06:59:05;35.00;;;31.83;;
16804;SDS011;8520;50.102;20.010;2024-03-08T07:01:33;35.83;;;32.53;;
16804;SDS011;8520;50.102;20.010;2024-03-08T07:04:03;35.80;;;32.60;;
16804;SDS011;8520;50.102;20.010;2024-03-08T07:06:32;34.07;;;31.13;;
16804;SDS011;8520;50.102;20.010;2024-03-08T07:09:01;34.27;;;31.23;;
16804;SDS011;8520;50.102;20.010;2024-03-08T07:11:29;33.27;;;30.03;;
16804;SDS011;8520;50.102;20.010;2024-03-08T07:13:57;33.07;;;30.30;;
16804;SDS011;8520;50.102;20.010;2024-03-08T07:16:26;34.40;;;31.30;;
16804;SDS011;8520;50.102;20.010;2024-03-08T07:18:55;35.13;;;31.93;;
16804;SDS011;8520;50.102;20.010;2024-03-08T07:21:23;35.50;;;32.40;;
16804;SDS011;8520;50.102;20.010;2024-03-08T07:23:51;34.77;;;31.70;;
16804;SDS011;8520;50.102;20.010;2024-03-08T07:26:40;34.63;;;31.60;;
16804;SDS011;8520;50.102;20.010;2024-03-08T07:29:08;37.20;;;33.73;;
16804;SDS011;8520;50.102;20.010;2024-03-08T07:31:37;36.47;;;33.10;;
16804;SDS011;8520;50.102;20.010;2024-03-08T07:34:16;39.47;;;35.60;;
16804;SDS011;8520;50.102;20.010;2024-03-08T07:36:44;38.43;;;34.90;;
16804;SDS011;8520;50.102;20.010;2024-03-08T07:39:12;40.73;;;36.90;;
16804;SDS011;8520;50.102;20.010;2024-03-08T07:41:41;41.40;;;37.60;;
16804;SDS011;8520;50.102;20.010;2024-03-08T07:44:09;39.47;;;35.77;;
16804;SDS011;8520;50.102;20.010;2024-03-08T07:46:38;42.87;;;38.53;;
16804;SDS011;8520;50.102;20.010;2024-03-08T07:49:08;41.73;;;37.90;;
16804;SDS011;8520;50.102;20.010;2024-03-08T07:51:37;38.50;;;34.80;;
16804;SDS011;8520;50.102;20.010;2024-03-08T07:54:05;36.77;;;33.47;;
16804;SDS011;8520;50.102;20.010;2024-03-08T07:56:36;37.40;;;34.00;;
16804;SDS011;8520;50.102;20.010;2024-03-08T07:59:04;39.03;;;35.33;;
16804;SDS011;8520;50.102;20.010;2024-03-08T08:01:32;39.40;;;35.70;;
16804;SDS011;8520;50.102;20.010;2024-03-08T08:04:02;41.40;;;35.23;;
16804;SDS011;8520;50.102;20.010;2024-03-08T08:06:30;40.20;;;36.23;;
16804;SDS011;8520;50.102;20.010;2024-03-08T08:08:59;40.10;;;36.17;;
16804;SDS011;8520;50.102;20.010;2024-03-08T08:11:28;40.13;;;36.33;;
16804;SDS011;8520;50.102;20.010;2024-03-08T08:13:56;41.80;;;37.57;;
16804;SDS011;8520;50.102;20.010;2024-03-08T08:16:24;41.00;;;37.20;;
16804;SDS011;8520;50.102;20.010;2024-03-08T08:18:52;41.00;;;37.10;;
16804;SDS011;8520;50.102;20.010;2024-03-08T08:21:22;41.37;;;37.17;;
16804;SDS011;8520;50.102;20.010;2024-03-08T08:23:51;41.13;;;37.13;;
16804;SDS011;8520;50.102;20.010;2024-03-08T08:26:19;40.80;;;36.90;;
16804;SDS011;8520;50.102;20.010;2024-03-08T08:28:48;41.03;;;37.10;;
16804;SDS011;8520;50.102;20.010;2024-03-08T08:31:16;39.13;;;35.47;;
16804;SDS011;8520;50.102;20.010;2024-03-08T08:33:43;40.23;;;36.43;;
16804;SDS011;8520;50.102;20.010;2024-03-08T08:36:14;38.53;;;34.83;;
16804;SDS011;8520;50.102;20.010;2024-03-08T08:38:44;38.23;;;34.63;;
16804;SDS011;8520;50.102;20.010;2024-03-08T08:41:13;38.00;;;34.40;;
16804;SDS011;8520;50.102;20.010;2024-03-08T08:43:42;37.13;;;33.63;;
16804;SDS011;8520;50.102;20.010;2024-03-08T08:46:28;36.67;;;33.07;;
16804;SDS011;8520;50.102;20.010;2024-03-08T08:48:56;37.40;;;33.53;;
16804;SDS011;8520;50.102;20.010;2024-03-08T08:51:25;36.77;;;33.27;;
16804;SDS011;8520;50.102;20.010;2024-03-08T08:53:55;36.60;;;33.00;;
16804;SDS011;8520;50.102;20.010;2024-03-08T08:56:23;34.57;;;31.17;;
16804;SDS011;8520;50.102;20.010;2024-03-08T08:58:52;33.03;;;29.97;;
16804;SDS011;8520;50.102;20.010;2024-03-08T09:01:21;31.53;;;28.73;;
16804;SDS011;8520;50.102;20.010;2024-03-08T09:03:49;32.33;;;29.33;;
16804;SDS011;8520;50.102;20.010;2024-03-08T09:06:18;32.33;;;29.33;;
16804;SDS011;8520;50.102;20.010;2024-03-08T09:08:46;32.53;;;29.27;;
16804;SDS011;8520;50.102;20.010;2024-03-08T09:11:16;30.20;;;27.40;;
16804;SDS011;8520;50.102;20.010;2024-03-08T09:13:44;30.20;;;27.30;;
16804;SDS011;8520;50.102;20.010;2024-03-08T09:16:12;28.60;;;26.10;;
16804;SDS011;8520;50.102;20.010;2024-03-08T09:18:40;30.70;;;27.90;;
16804;SDS011;8520;50.102;20.010;2024-03-08T09:21:08;30.33;;;27.63;;
16804;SDS011;8520;50.102;20.010;2024-03-08T09:23:37;28.60;;;26.07;;
16804;SDS011;8520;50.102;20.010;2024-03-08T09:26:05;30.17;;;27.37;;
16804;SDS011;8520;50.102;20.010;2024-03-08T09:28:49;30.73;;;27.50;;
16804;SDS011;8520;50.102;20.010;2024-03-08T09:31:17;28.97;;;26.17;;
16804;SDS011;8520;50.102;20.010;2024-03-08T09:33:46;28.23;;;25.63;;
16804;SDS011;8520;50.102;20.010;2024-03-08T09:36:14;28.80;;;26.20;;
16804;SDS011;8520;50.102;20.010;2024-03-08T09:38:42;27.87;;;25.43;;
16804;SDS011;8520;50.102;20.010;2024-03-08T09:41:10;29.37;;;26.77;;
16804;SDS011;8520;50.102;20.010;2024-03-08T09:43:39;28.20;;;25.70;;
16804;SDS011;8520;50.102;20.010;2024-03-08T09:46:08;29.03;;;26.43;;
16804;SDS011;8520;50.102;20.010;2024-03-08T09:48:37;28.23;;;25.47;;
16804;SDS011;8520;50.102;20.010;2024-03-08T09:51:08;28.10;;;25.23;;
16804;SDS011;8520;50.102;20.010;2024-03-08T09:53:40;27.80;;;25.43;;
16804;SDS011;8520;50.102;20.010;2024-03-08T09:56:08;26.67;;;24.37;;
16804;SDS011;8520;50.102;20.010;2024-03-08T09:58:38;26.33;;;24.03;;
16804;SDS011;8520;50.102;20.010;2024-03-08T10:01:24;28.17;;;25.57;;
16804;SDS011;8520;50.102;20.010;2024-03-08T10:03:53;27.50;;;25.00;;
16804;SDS011;8520;50.102;20.010;2024-03-08T10:06:22;26.57;;;24.27;;
16804;SDS011;8520;50.102;20.010;2024-03-08T10:08:50;24.90;;;22.80;;
16804;SDS011;8520;50.102;20.010;2024-03-08T10:11:19;26.13;;;23.57;;
16804;SDS011;8520;50.102;20.010;2024-03-08T10:13:47;25.83;;;23.37;;
16804;SDS011;8520;50.102;20.010;2024-03-08T10:16:16;25.20;;;23.00;;
16804;SDS011;8520;50.102;20.010;2024-03-08T10:18:46;25.00;;;22.87;;
16804;SDS011;8520;50.102;20.010;2024-03-08T10:21:14;24.47;;;22.37;;
16804;SDS011;8520;50.102;20.010;2024-03-08T10:23:43;24.83;;;22.73;;
16804;SDS011;8520;50.102;20.010;2024-03-08T10:26:12;25.80;;;23.50;;
16804;SDS011;8520;50.102;20.010;2024-03-08T10:28:42;26.43;;;24.07;;
16804;SDS011;8520;50.102;20.010;2024-03-08T10:31:11;25.33;;;22.93;;
16804;SDS011;8520;50.102;20.010;2024-03-08T10:33:42;23.60;;;21.40;;
16804;SDS011;8520;50.102;20.010;2024-03-08T10:36:13;25.20;;;23.00;;
16804;SDS011;8520;50.102;20.010;2024-03-08T10:38:41;24.23;;;22.03;;
16804;SDS011;8520;50.102;20.010;2024-03-08T10:41:14;24.10;;;22.00;;
16804;SDS011;8520;50.102;20.010;2024-03-08T10:43:59;25.20;;;23.00;;
16804;SDS011;8520;50.102;20.010;2024-03-08T10:46:38;25.60;;;23.10;;
16804;SDS011;8520;50.102;20.010;2024-03-08T10:49:12;26.60;;;24.13;;
16804;SDS011;8520;50.102;20.010;2024-03-08T10:51:45;26.27;;;23.77;;
16804;SDS011;8520;50.102;20.010;2024-03-08T10:54:14;26.93;;;24.37;;
16804;SDS011;8520;50.102;20.010;2024-03-08T10:56:44;28.27;;;25.57;;
16804;SDS011;8520;50.102;20.010;2024-03-08T10:59:12;25.47;;;23.33;;
16804;SDS011;8520;50.102;20.010;2024-03-08T11:01:40;26.47;;;24.03;;
16804;SDS011;8520;50.102;20.010;2024-03-08T11:04:08;25.17;;;22.87;;
16804;SDS011;8520;50.102;20.010;2024-03-08T11:06:44;25.97;;;23.67;;
16804;SDS011;8520;50.102;20.010;2024-03-08T11:09:31;26.20;;;23.70;;
16804;SDS011;8520;50.102;20.010;2024-03-08T11:12:18;26.90;;;24.60;;
16804;SDS011;8520;50.102;20.010;2024-03-08T11:14:46;26.83;;;24.43;;
16804;SDS011;8520;50.102;20.010;2024-03-08T11:17:15;25.97;;;23.67;;
16804;SDS011;8520;50.102;20.010;2024-03-08T11:19:47;26.90;;;24.43;;
16804;SDS011;8520;50.102;20.010;2024-03-08T11:22:22;25.83;;;23.63;;
16804;SDS011;8520;50.102;20.010;2024-03-08T11:24:55;25.90;;;23.60;;
16804;SDS011;8520;50.102;20.010;2024-03-08T11:27:28;26.60;;;23.90;;
16804;SDS011;8520;50.102;20.010;2024-03-08T11:30:00;26.57;;;24.23;;
16804;SDS011;8520;50.102;20.010;2024-03-08T11:32:35;27.53;;;24.97;;
16804;SDS011;8520;50.102;20.010;2024-03-08T11:35:05;27.30;;;24.67;;
16804;SDS011;8520;50.102;20.010;2024-03-08T11:37:34;26.57;;;24.10;;
16804;SDS011;8520;50.102;20.010;2024-03-08T11:40:11;27.73;;;24.90;;
16804;SDS011;8520;50.102;20.010;2024-03-08T11:42:43;28.60;;;26.00;;
16804;SDS011;8520;50.102;20.010;2024-03-08T11:45:13;28.60;;;25.80;;
16804;SDS011;8520;50.102;20.010;2024-03-08T11:47:41;27.47;;;24.80;;
16804;SDS011;8520;50.102;20.010;2024-03-08T11:50:10;27.80;;;25.30;;
16804;SDS011;8520;50.102;20.010;2024-03-08T11:52:38;27.67;;;25.07;;
16804;SDS011;8520;50.102;20.010;2024-03-08T11:55:08;25.63;;;23.43;;
16804;SDS011;8520;50.102;20.010;2024-03-08T11:57:36;26.67;;;24.37;;
16804;SDS011;8520;50.102;20.010;2024-03-08T12:00:05;25.77;;;23.30;;
16804;SDS011;8520;50.102;20.010;2024-03-08T12:02:34;25.67;;;23.43;;
16804;SDS011;8520;50.102;20.010;2024-03-08T12:05:04;26.03;;;23.70;;
16804;SDS011;8520;50.102;20.010;2024-03-08T12:07:36;26.23;;;23.73;;
16804;SDS011;8520;50.102;20.010;2024-03-08T12:10:18;25.33;;;22.63;;
16804;SDS011;8520;50.102;20.010;2024-03-08T12:12:46;25.77;;;23.37;;
16804;SDS011;8520;50.102;20.010;2024-03-08T12:15:16;24.53;;;22.57;;
16804;SDS011;8520;50.102;20.010;2024-03-08T12:17:46;25.73;;;23.47;;
16804;SDS011;8520;50.102;20.010;2024-03-08T12:20:15;23.90;;;21.77;;
16804;SDS011;8520;50.102;20.010;2024-03-08T12:22:43;24.60;;;22.50;;
16804;SDS011;8520;50.102;20.010;2024-03-08T12:25:12;23.85;;;21.75;;
16804;SDS011;8520;50.102;20.010;2024-03-08T12:27:42;24.90;;;22.52;;
16804;SDS011;8520;50.102;20.010;2024-03-08T12:30:17;22.20;;;20.25;;
16804;SDS011;8520;50.102;20.010;2024-03-08T12:32:48;23.88;;;21.67;;
16804;SDS011;8520;50.102;20.010;2024-03-08T12:35:19;24.45;;;22.35;;
16804;SDS011;8520;50.102;20.010;2024-03-08T12:37:49;25.15;;;22.92;;
16804;SDS011;8520;50.102;20.010;2024-03-08T12:40:18;24.70;;;22.25;;
16804;SDS011;8520;50.102;20.010;2024-03-08T12:42:48;24.05;;;21.92;;
16804;SDS011;8520;50.102;20.010;2024-03-08T12:45:16;23.95;;;21.92;;
16804;SDS011;8520;50.102;20.010;2024-03-08T12:47:44;25.38;;;23.25;;
16804;SDS011;8520;50.102;20.010;2024-03-08T12:50:13;24.55;;;22.48;;
16804;SDS011;8520;50.102;20.010;2024-03-08T12:52:43;24.63;;;22.42;;
16804;SDS011;8520;50.102;20.010;2024-03-08T12:55:12;25.25;;;23.25;;
16804;SDS011;8520;50.102;20.010;2024-03-08T12:57:44;25.45;;;23.27;;
16804;SDS011;8520;50.102;20.010;2024-03-08T13:00:16;25.17;;;23.08;;
16804;SDS011;8520;50.102;20.010;2024-03-08T13:02:47;26.17;;;23.98;;
16804;SDS011;8520;50.102;20.010;2024-03-08T13:05:18;25.85;;;23.55;;
16804;SDS011;8520;50.102;20.010;2024-03-08T13:07:47;26.30;;;24.10;;
16804;SDS011;8520;50.102;20.010;2024-03-08T13:10:16;26.48;;;24.13;;
16804;SDS011;8520;50.102;20.010;2024-03-08T13:12:47;24.85;;;22.60;;
16804;SDS011;8520;50.102;20.010;2024-03-08T13:15:21;24.92;;;22.83;;
16804;SDS011;8520;50.102;20.010;2024-03-08T13:17:51;27.00;;;24.70;;
16804;SDS011;8520;50.102;20.010;2024-03-08T13:20:18;25.58;;;23.38;;
16804;SDS011;8520;50.102;20.010;2024-03-08T13:22:59;26.08;;;23.67;;
16804;SDS011;8520;50.102;20.010;2024-03-08T13:25:28;25.73;;;23.55;;
16804;SDS011;8520;50.102;20.010;2024-03-08T13:27:56;25.30;;;23.00;;
16804;SDS011;8520;50.102;20.010;2024-03-08T13:30:27;27.05;;;22.95;;
16804;SDS011;8520;50.102;20.010;2024-03-08T13:32:57;24.58;;;22.63;;
16804;SDS011;8520;50.102;20.010;2024-03-08T13:35:25;25.52;;;23.20;;
16804;SDS011;8520;50.102;20.010;2024-03-08T13:37:54;25.38;;;23.25;;
16804;SDS011;8520;50.102;20.010;2024-03-08T13:40:23;25.33;;;23.02;;
16804;SDS011;8520;50.102;20.010;2024-03-08T13:42:51;25.27;;;22.98;;
16804;SDS011;8520;50.102;20.010;2024-03-08T13:45:19;25.13;;;22.90;;
16804;SDS011;8520;50.102;20.010;2024-03-08T13:47:52;24.73;;;22.40;;
16804;SDS011;8520;50.102;20.010;2024-03-08T13:50:21;25.38;;;23.20;;
16804;SDS011;8520;50.102;20.010;2024-03-08T13:52:50;24.35;;;22.25;;
16804;SDS011;8520;50.102;20.010;2024-03-08T13:55:22;25.38;;;23.02;;
16804;SDS011;8520;50.102;20.010;2024-03-08T13:57:52;24.77;;;22.48;;
16804;SDS011;8520;50.102;20.010;2024-03-08T14:00:20;24.75;;;22.55;;
16804;SDS011;8520;50.102;20.010;2024-03-08T14:02:49;25.98;;;23.48;;
16804;SDS011;8520;50.102;20.010;2024-03-08T14:05:19;25.63;;;23.48;;
16804;SDS011;8520;50.102;20.010;2024-03-08T14:07:47;23.85;;;21.92;;
16804;SDS011;8520;50.102;20.010;2024-03-08T14:10:16;25.30;;;23.13;;
16804;SDS011;8520;50.102;20.010;2024-03-08T14:12:47;24.38;;;22.20;;
16804;SDS011;8520;50.102;20.010;2024-03-08T14:15:17;24.40;;;22.30;;
16804;SDS011;8520;50.102;20.010;2024-03-08T14:17:51;23.13;;;21.13;;
16804;SDS011;8520;50.102;20.010;2024-03-08T14:20:21;23.05;;;21.05;;
16804;SDS011;8520;50.102;20.010;2024-03-08T14:22:52;23.05;;;20.95;;
16804;SDS011;8520;50.102;20.010;2024-03-08T14:25:22;24.75;;;22.30;;
16804;SDS011;8520;50.102;20.010;2024-03-08T14:27:50;24.23;;;22.13;;
16804;SDS011;8520;50.102;20.010;2024-03-08T14:30:20;23.45;;;21.35;;
16804;SDS011;8520;50.102;20.010;2024-03-08T14:33:01;25.35;;;22.95;;